createdAt,value
2019-03-25T00:01:19.828Z,19.52
2019-03-25T00:03:52.530Z,20.12
2019-03-25T00:06:25.260Z,19.55
2019-03-25T00:09:05.304Z,22.20
2019-03-25T00:11:36.353Z,20.05
2019-03-25T00:14:09.133Z,26.17
2019-03-25T00:16:41.926Z,18.40
2019-03-25T00:19:14.663Z,22.80
2019-03-25T00:21:47.282Z,19.42
2019-03-25T00:24:19.908Z,24.25
2019-03-25T00:26:52.557Z,21.65
2019-03-25T00:29:25.217Z,22.48
2019-03-25T00:31:57.839Z,18.23
2019-03-25T00:34:31.068Z,25.17
2019-03-25T00:37:04.209Z,19.27
2019-03-25T00:39:36.930Z,22.25
2019-03-25T00:42:09.573Z,24.60
2019-03-25T00:44:42.221Z,24.45
2019-03-25T00:47:15.053Z,21.75
2019-03-25T00:49:47.680Z,20.05
2019-03-25T00:52:20.310Z,22.40
2019-03-25T00:54:53.366Z,22.10
2019-03-25T00:57:26.426Z,15.10
2019-03-25T01:00:00.383Z,21.73
2019-03-25T01:02:36.415Z,13.75
2019-03-25T01:05:10.153Z,19.15
2019-03-25T01:07:42.882Z,16.32
2019-03-25T01:10:16.281Z,16.73
2019-03-25T01:12:48.908Z,20.02
2019-03-25T01:15:21.530Z,17.07
2019-03-25T01:17:54.164Z,24.05
2019-03-25T01:20:26.931Z,21.80
2019-03-25T01:22:59.519Z,24.65
2019-03-25T01:25:32.527Z,20.60
2019-03-25T01:28:05.950Z,20.08
2019-03-25T01:30:38.727Z,15.48
2019-03-25T01:33:11.444Z,22.82
2019-03-25T01:35:44.062Z,20.37
2019-03-25T01:38:16.681Z,14.18
2019-03-25T01:40:49.667Z,18.65
2019-03-25T01:43:22.285Z,19.15
2019-03-25T01:45:55.006Z,19.98
2019-03-25T01:48:27.616Z,21.40
2019-03-25T01:51:00.246Z,32.35
2019-03-25T01:53:34.217Z,17.12
2019-03-25T01:56:06.933Z,19.02
2019-03-25T01:58:39.640Z,21.70
2019-03-25T02:01:12.357Z,19.85
2019-03-25T02:03:45.032Z,17.90
2019-03-25T02:06:17.653Z,18.25
2019-03-25T02:08:50.280Z,18.75
2019-03-25T02:11:23.258Z,16.90
2019-03-25T02:13:55.898Z,20.85
2019-03-25T02:16:29.343Z,19.48
2019-03-25T02:19:02.843Z,23.07
2019-03-25T02:21:36.008Z,21.57
2019-03-25T02:24:08.632Z,17.37
2019-03-25T02:26:41.274Z,17.20
2019-03-25T02:29:13.918Z,18.23
2019-03-25T02:31:46.620Z,19.45
2019-03-25T02:34:19.234Z,18.35
2019-03-25T02:36:51.877Z,18.07
2019-03-25T02:39:24.519Z,19.50
2019-03-25T02:41:57.127Z,21.15
2019-03-25T02:44:29.780Z,20.17
2019-03-25T02:47:03.201Z,20.32
2019-03-25T02:49:35.823Z,17.70
2019-03-25T02:52:08.559Z,15.45
2019-03-25T02:54:41.221Z,18.77
2019-03-25T02:57:13.887Z,18.30
2019-03-25T02:59:46.512Z,15.32
2019-03-25T03:02:19.157Z,16.45
2019-03-25T03:04:51.758Z,15.72
2019-03-25T03:07:24.379Z,17.50
2019-03-25T03:09:57.015Z,18.55
2019-03-25T03:12:29.605Z,23.25
2019-03-25T03:15:02.349Z,17.50
2019-03-25T03:17:34.968Z,17.67
2019-03-25T03:20:08.381Z,17.87
2019-03-25T03:22:41.029Z,15.05
2019-03-25T03:25:13.735Z,13.62
2019-03-25T03:27:46.358Z,21.73
2019-03-25T03:30:18.987Z,16.45
2019-03-25T03:32:51.608Z,18.05
2019-03-25T03:35:26.303Z,18.50
2019-03-25T03:37:58.952Z,15.93
2019-03-25T03:40:31.607Z,16.60
2019-03-25T03:43:04.413Z,16.30
2019-03-25T03:45:37.113Z,16.42
2019-03-25T03:48:09.732Z,16.32
2019-03-25T03:50:43.235Z,16.73
2019-03-25T03:53:16.493Z,18.85
2019-03-25T03:55:51.174Z,16.17
2019-03-25T03:58:25.696Z,12.35
2019-03-25T04:00:58.324Z,14.73
2019-03-25T04:03:32.010Z,13.53
2019-03-25T04:06:04.623Z,17.02
2019-03-25T04:08:37.276Z,13.15
2019-03-25T04:11:09.927Z,15.72
2019-03-25T04:13:42.786Z,13.95
2019-03-25T04:16:15.522Z,16.70
2019-03-25T04:18:48.237Z,16.02
2019-03-25T04:21:20.871Z,17.42
2019-03-25T04:23:54.688Z,13.38
2019-03-25T04:26:29.285Z,14.47
2019-03-25T04:29:02.003Z,15.58
2019-03-25T04:31:35.937Z,15.88
2019-03-25T04:34:08.628Z,13.80
2019-03-25T04:36:41.675Z,14.58
2019-03-25T04:39:23.189Z,12.53
2019-03-25T04:41:55.800Z,14.80
2019-03-25T04:44:28.561Z,16.30
2019-03-25T04:47:01.215Z,14.43
2019-03-25T04:49:35.447Z,13.55
2019-03-25T04:52:08.549Z,16.15
2019-03-25T04:54:41.320Z,18.52
2019-03-25T04:57:13.977Z,18.07
2019-03-25T04:59:47.045Z,15.08
2019-03-25T05:02:19.760Z,16.87
2019-03-25T05:04:52.453Z,15.28
2019-03-25T05:07:25.063Z,13.53
2019-03-25T05:09:57.799Z,19.40
2019-03-25T05:12:32.761Z,18.52
2019-03-25T05:15:06.470Z,16.65
2019-03-25T05:17:39.142Z,12.75
2019-03-25T05:20:11.890Z,10.68
2019-03-25T05:22:44.499Z,15.63
2019-03-25T05:25:17.155Z,13.22
2019-03-25T05:27:49.804Z,17.95
2019-03-25T05:30:23.054Z,11.35
2019-03-25T05:32:55.828Z,11.45
2019-03-25T05:35:28.455Z,10.70
2019-03-25T05:38:01.973Z,13.65
2019-03-25T05:40:34.595Z,12.58
2019-03-25T05:43:07.884Z,12.05
2019-03-25T05:45:41.159Z,17.87
2019-03-25T05:48:13.839Z,16.40
2019-03-25T05:50:46.484Z,17.90
2019-03-25T05:53:19.132Z,11.03
2019-03-25T05:55:53.074Z,16.23
2019-03-25T05:58:25.722Z,12.90
2019-03-25T06:00:58.389Z,13.53
2019-03-25T06:03:31.276Z,11.30
2019-03-25T06:06:03.933Z,15.20
2019-03-25T06:08:36.655Z,12.47
2019-03-25T06:11:09.267Z,12.20
2019-03-25T06:13:41.940Z,15.75
2019-03-25T06:16:14.562Z,12.98
2019-03-25T06:18:47.179Z,11.97
2019-03-25T06:21:19.842Z,13.72
2019-03-25T06:23:52.467Z,17.75
2019-03-25T06:26:25.136Z,13.55
2019-03-25T06:28:57.756Z,14.45
2019-03-25T06:31:32.077Z,23.57
2019-03-25T06:34:04.960Z,15.50
2019-03-25T06:36:37.618Z,13.65
2019-03-25T06:39:10.506Z,15.10
2019-03-25T06:41:43.174Z,11.25
2019-03-25T06:44:16.179Z,17.48
2019-03-25T06:46:49.096Z,13.60
2019-03-25T06:49:21.732Z,11.97
2019-03-25T06:51:54.349Z,11.45
2019-03-25T06:54:26.950Z,15.95
2019-03-25T06:56:59.574Z,12.70
2019-03-25T06:59:32.199Z,15.93
2019-03-25T07:02:04.803Z,14.20
2019-03-25T07:04:37.408Z,17.32
2019-03-25T07:07:11.454Z,17.35
2019-03-25T07:09:44.072Z,10.18
2019-03-25T07:12:17.621Z,14.10
2019-03-25T07:14:50.424Z,11.97
2019-03-25T07:17:23.161Z,11.65
2019-03-25T07:19:56.215Z,11.65
2019-03-25T07:22:29.021Z,10.72
2019-03-25T07:25:03.021Z,11.15
2019-03-25T07:27:37.429Z,14.70
2019-03-25T07:30:12.206Z,14.80
2019-03-25T07:32:46.051Z,16.45
2019-03-25T07:35:18.931Z,14.90
2019-03-25T07:37:51.931Z,12.25
2019-03-25T07:40:39.116Z,17.25
2019-03-25T07:43:11.767Z,12.50
2019-03-25T07:45:48.153Z,11.88
2019-03-25T07:48:20.788Z,17.45
2019-03-25T07:50:53.495Z,15.08
2019-03-25T07:53:26.112Z,12.60
2019-03-25T07:55:58.758Z,21.70
2019-03-25T07:58:31.483Z,12.40
2019-03-25T08:01:06.408Z,14.35
2019-03-25T08:03:39.991Z,12.98
2019-03-25T08:06:12.848Z,9.25
2019-03-25T08:08:45.718Z,12.33
2019-03-25T08:11:18.417Z,15.65
2019-03-25T08:13:53.074Z,13.18
2019-03-25T08:16:32.074Z,15.72
2019-03-25T08:22:07.772Z,10.85
2019-03-25T08:24:42.028Z,10.68
2019-03-25T08:27:14.836Z,14.03
2019-03-25T08:29:47.660Z,15.55
2019-03-25T08:32:20.254Z,11.75
2019-03-25T08:34:53.015Z,12.70
2019-03-25T08:37:25.682Z,12.07
2019-03-25T08:39:58.347Z,13.08
2019-03-25T08:42:31.217Z,10.80
2019-03-25T08:45:06.044Z,12.88
2019-03-25T08:47:38.695Z,11.68
2019-03-25T08:50:12.019Z,16.45
2019-03-25T08:52:44.720Z,8.80
2019-03-25T08:55:17.456Z,8.33
2019-03-25T08:57:50.450Z,8.80
2019-03-25T09:00:24.795Z,8.60
2019-03-25T09:02:58.068Z,7.92
2019-03-25T09:05:32.384Z,8.28
2019-03-25T09:08:06.958Z,9.73
2019-03-25T09:10:39.750Z,5.12
2019-03-25T09:13:12.503Z,5.72
2019-03-25T09:15:45.286Z,7.05
2019-03-25T09:18:18.132Z,6.15
2019-03-25T09:20:51.180Z,5.83
2019-03-25T09:23:23.886Z,5.85
2019-03-25T09:25:56.638Z,7.15
2019-03-25T09:28:29.261Z,7.90
2019-03-25T09:31:11.465Z,6.42
2019-03-25T09:33:44.436Z,7.30
2019-03-25T09:36:19.401Z,9.03
2019-03-25T09:38:52.170Z,5.97
2019-03-25T09:41:24.833Z,14.30
2019-03-25T09:43:57.436Z,11.55
2019-03-25T09:46:30.198Z,9.35
2019-03-25T09:49:03.413Z,5.92
2019-03-25T09:51:36.102Z,5.28
2019-03-25T09:54:08.689Z,7.72
2019-03-25T09:56:41.400Z,5.25
2019-03-25T09:59:15.719Z,5.37
2019-03-25T10:01:48.373Z,6.62
2019-03-25T10:04:21.051Z,7.03
2019-03-25T10:06:53.678Z,5.53
2019-03-25T10:09:26.663Z,6.25
2019-03-25T10:11:59.279Z,6.90
2019-03-25T10:14:31.892Z,5.22
2019-03-25T10:17:06.984Z,4.95
2019-03-25T10:19:39.595Z,6.22
2019-03-25T10:22:12.624Z,5.45
2019-03-25T10:24:45.224Z,6.10
2019-03-25T10:27:17.839Z,6.90
2019-03-25T10:29:50.446Z,5.58
2019-03-25T10:32:23.058Z,7.00
2019-03-25T10:34:55.676Z,5.80
2019-03-25T10:37:28.285Z,4.45
2019-03-25T10:40:00.897Z,8.15
2019-03-25T10:42:33.533Z,5.85
2019-03-25T10:45:06.361Z,6.85
2019-03-25T10:47:38.982Z,6.45
2019-03-25T10:50:13.214Z,6.17
2019-03-25T10:52:45.855Z,8.33
2019-03-25T10:55:18.583Z,6.87
2019-03-25T10:57:51.284Z,9.68
2019-03-25T11:00:24.303Z,6.10
2019-03-25T11:02:56.938Z,7.10
2019-03-25T11:05:29.564Z,6.95
2019-03-25T11:08:02.871Z,5.25
2019-03-25T11:10:35.472Z,4.50
2019-03-25T11:13:08.102Z,8.25
2019-03-25T11:15:40.693Z,9.20
2019-03-25T11:18:13.390Z,7.17
2019-03-25T11:20:47.868Z,7.60
2019-03-25T11:23:20.469Z,5.97
2019-03-25T11:25:53.106Z,10.13
2019-03-25T11:28:25.728Z,8.28
2019-03-25T11:31:00.223Z,8.75
2019-03-25T11:33:33.304Z,5.72
2019-03-25T11:36:06.529Z,8.28
2019-03-25T11:38:39.228Z,6.95
2019-03-25T11:41:11.963Z,6.97
2019-03-25T11:43:44.634Z,9.08
2019-03-25T11:46:17.374Z,7.28
2019-03-25T11:48:49.993Z,3.90
2019-03-25T11:51:22.636Z,5.42
2019-03-25T11:53:55.262Z,4.30
2019-03-25T11:56:27.891Z,7.87
2019-03-25T11:59:02.812Z,6.17
2019-03-25T12:01:34.877Z,4.70
2019-03-25T12:04:07.725Z,5.83
2019-03-25T12:06:40.468Z,6.83
2019-03-25T12:09:13.180Z,6.15
2019-03-25T12:11:45.789Z,8.03
2019-03-25T12:14:18.392Z,6.15
2019-03-25T12:16:51.070Z,9.03
2019-03-25T12:19:25.327Z,5.72
2019-03-25T12:21:58.047Z,5.67
2019-03-25T12:24:32.546Z,5.58
2019-03-25T12:27:06.026Z,11.70
2019-03-25T12:29:38.992Z,5.00
2019-03-25T12:32:11.630Z,4.55
2019-03-25T12:34:46.048Z,7.47
2019-03-25T12:37:18.819Z,5.12
2019-03-25T12:39:53.243Z,9.18
2019-03-25T12:42:25.856Z,5.78
2019-03-25T12:44:58.487Z,5.17
2019-03-25T12:47:31.131Z,5.17
2019-03-25T12:50:05.503Z,6.03
2019-03-25T12:52:38.257Z,7.37
2019-03-25T12:55:12.625Z,7.30
2019-03-25T12:57:45.350Z,8.10
2019-03-25T13:00:22.125Z,6.85
2019-03-25T13:02:54.754Z,6.90
2019-03-25T13:05:27.449Z,7.42
2019-03-25T13:08:00.085Z,6.20
2019-03-25T13:10:33.752Z,4.17
2019-03-25T13:13:06.676Z,8.03
2019-03-25T13:15:42.481Z,7.62
2019-03-25T13:18:15.331Z,5.15
2019-03-25T13:20:47.944Z,8.73
2019-03-25T13:23:20.576Z,4.92
2019-03-25T13:25:53.288Z,7.70
2019-03-25T13:28:25.973Z,4.12
2019-03-25T13:30:58.578Z,5.67
2019-03-25T13:33:32.078Z,7.80
2019-03-25T13:36:05.650Z,6.15
2019-03-25T13:38:38.649Z,8.13
2019-03-25T13:41:11.279Z,5.22
2019-03-25T13:43:44.041Z,6.25
2019-03-25T13:46:18.034Z,6.65
2019-03-25T13:48:50.727Z,6.28
2019-03-25T13:51:23.509Z,8.28
2019-03-25T13:53:56.115Z,6.78
2019-03-25T13:56:31.289Z,5.12
2019-03-25T13:59:03.897Z,6.58
2019-03-25T14:01:36.510Z,6.25
2019-03-25T14:04:09.150Z,8.33
2019-03-25T14:06:41.772Z,4.72
2019-03-25T14:09:14.501Z,8.70
2019-03-25T14:11:48.770Z,5.55
2019-03-25T14:14:21.456Z,6.03
2019-03-25T14:16:54.067Z,8.38
2019-03-25T14:19:29.115Z,8.33
2019-03-25T14:22:02.218Z,9.80
2019-03-25T14:24:34.835Z,4.80
2019-03-25T14:27:07.859Z,5.67
2019-03-25T14:29:40.547Z,7.42
2019-03-25T14:32:13.164Z,4.65
2019-03-25T14:34:45.765Z,6.65
2019-03-25T14:37:18.851Z,5.15
2019-03-25T14:39:51.495Z,9.08
2019-03-25T14:42:24.287Z,7.78
2019-03-25T14:44:56.947Z,5.00
2019-03-25T14:47:32.120Z,5.42
2019-03-25T14:50:06.321Z,6.28
2019-03-25T14:52:38.976Z,4.12
2019-03-25T14:55:13.611Z,8.85
2019-03-25T14:57:46.243Z,7.83
2019-03-25T15:00:25.085Z,5.95
2019-03-25T15:02:54.160Z,9.95
2019-03-25T15:05:26.838Z,3.33
2019-03-25T15:07:59.571Z,6.83
2019-03-25T15:10:32.253Z,7.95
2019-03-25T15:13:05.326Z,6.72
2019-03-25T15:15:38.201Z,5.92
2019-03-25T15:18:15.427Z,5.22
2019-03-25T15:20:45.287Z,9.25
2019-03-25T15:23:17.911Z,4.62
2019-03-25T15:25:50.972Z,6.22
2019-03-25T15:28:23.593Z,5.97
2019-03-25T15:30:56.232Z,4.75
2019-03-25T15:33:28.847Z,7.92
2019-03-25T15:36:02.218Z,6.15
2019-03-25T15:38:35.225Z,6.70
2019-03-25T15:41:09.508Z,7.53
2019-03-25T15:46:36.967Z,7.03
2019-03-25T15:49:11.492Z,5.87
2019-03-25T15:52:05.182Z,8.33
2019-03-25T15:54:40.021Z,6.58
2019-03-25T15:57:12.684Z,4.30
2019-03-25T15:59:46.935Z,6.08
2019-03-25T16:02:19.579Z,8.18
2019-03-25T16:04:52.332Z,6.67
2019-03-25T16:07:24.974Z,8.63
2019-03-25T16:09:57.578Z,7.35
2019-03-25T16:12:31.155Z,8.65
2019-03-25T16:15:03.872Z,6.53
2019-03-25T16:17:36.521Z,4.90
2019-03-25T16:20:09.670Z,5.33
2019-03-25T16:22:43.518Z,4.62
2019-03-25T16:25:28.524Z,6.55
2019-03-25T16:28:02.962Z,6.37
2019-03-25T16:30:35.621Z,5.78
2019-03-25T16:33:08.229Z,3.42
2019-03-25T16:35:40.886Z,5.80
2019-03-25T16:38:13.944Z,6.37
2019-03-25T16:40:46.671Z,4.85
2019-03-25T16:43:19.296Z,5.80
2019-03-25T16:45:51.967Z,3.50
2019-03-25T16:48:25.781Z,7.05
2019-03-25T16:50:58.938Z,5.17
2019-03-25T16:53:32.808Z,6.20
2019-03-25T16:56:06.721Z,6.08
2019-03-25T16:58:40.921Z,6.40
2019-03-25T17:01:13.555Z,4.53
2019-03-25T17:03:46.187Z,4.33
2019-03-25T17:06:18.790Z,5.78
2019-03-25T17:08:51.446Z,6.90
2019-03-25T17:11:24.219Z,10.05
2019-03-25T17:13:56.906Z,4.30
2019-03-25T17:16:29.547Z,8.03
2019-03-25T17:19:02.882Z,4.60
2019-03-25T17:21:35.559Z,5.17
2019-03-25T17:24:08.218Z,5.62
2019-03-25T17:26:42.581Z,6.35
2019-03-25T17:29:15.190Z,4.37
2019-03-25T17:31:47.948Z,8.10
2019-03-25T17:34:20.940Z,8.45
2019-03-25T17:36:53.624Z,4.95
2019-03-25T17:39:26.281Z,4.17
2019-03-25T17:41:58.980Z,9.03
2019-03-25T17:44:31.589Z,5.12
2019-03-25T17:47:04.259Z,2.65
2019-03-25T17:49:36.861Z,7.72
2019-03-25T17:52:09.973Z,5.85
2019-03-25T17:54:42.695Z,5.08
2019-03-25T17:57:15.349Z,5.20
2019-03-25T17:59:48.004Z,9.50
2019-03-25T18:02:20.673Z,5.08
2019-03-25T18:04:53.372Z,4.47
2019-03-25T18:07:26.168Z,5.20
2019-03-25T18:10:00.834Z,3.05
2019-03-25T18:12:38.906Z,5.58
2019-03-25T18:15:12.049Z,6.42
2019-03-25T18:17:44.738Z,7.40
2019-03-25T18:20:18.889Z,7.97
2019-03-25T18:22:51.952Z,7.92
2019-03-25T18:25:24.572Z,7.08
2019-03-25T18:27:57.617Z,7.42
2019-03-25T18:30:35.618Z,4.42
2019-03-25T18:33:09.374Z,5.45
2019-03-25T18:35:42.053Z,4.45
2019-03-25T18:38:14.803Z,6.35
2019-03-25T18:40:47.630Z,4.97
2019-03-25T18:43:20.350Z,4.58
2019-03-25T18:45:53.124Z,5.30
2019-03-25T18:48:25.803Z,5.67
2019-03-25T18:50:59.539Z,7.87
2019-03-25T18:53:32.166Z,2.65
2019-03-25T18:56:04.926Z,5.25
2019-03-25T18:58:39.476Z,4.17
2019-03-25T19:01:12.115Z,4.37
2019-03-25T19:03:44.975Z,4.30
2019-03-25T19:06:17.829Z,4.75
2019-03-25T19:08:51.043Z,6.83
2019-03-25T19:11:30.983Z,9.68
2019-03-25T19:13:58.039Z,15.48
2019-03-25T19:16:32.077Z,13.43
2019-03-25T19:19:04.814Z,18.50
2019-03-25T19:21:37.483Z,26.70
2019-03-25T19:24:10.101Z,13.85
2019-03-25T19:26:42.808Z,10.18
2019-03-25T19:29:15.423Z,9.70
2019-03-25T19:31:48.558Z,8.70
2019-03-25T19:34:21.224Z,21.68
2019-03-25T19:36:54.204Z,7.80
2019-03-25T19:39:26.951Z,7.67
2019-03-25T19:41:59.628Z,8.25
2019-03-25T19:44:32.304Z,8.35
2019-03-25T19:47:07.003Z,6.50
2019-03-25T19:49:39.661Z,5.75
2019-03-25T19:52:12.318Z,5.45
2019-03-25T19:54:45.074Z,6.40
2019-03-25T19:57:17.738Z,5.65
2019-03-25T19:59:50.338Z,6.10
2019-03-25T20:02:23.288Z,10.30
2019-03-25T20:04:57.952Z,6.17
2019-03-25T20:07:31.481Z,7.62
2019-03-25T20:10:04.706Z,6.28
2019-03-25T20:12:38.415Z,7.28
2019-03-25T20:15:11.211Z,4.50
2019-03-25T20:17:43.852Z,4.50
2019-03-25T20:20:16.611Z,4.15
2019-03-25T20:22:49.489Z,4.55
2019-03-25T20:25:22.247Z,4.28
2019-03-25T20:27:56.801Z,5.55
2019-03-25T20:30:29.461Z,4.45
2019-03-25T20:33:02.122Z,7.17
2019-03-25T20:35:36.789Z,6.37
2019-03-25T20:38:09.424Z,5.30
2019-03-25T20:40:42.192Z,5.15
2019-03-25T20:43:14.890Z,5.17
2019-03-25T20:45:47.535Z,4.05
2019-03-25T20:48:20.846Z,5.33
2019-03-25T20:50:53.662Z,3.65
2019-03-25T20:53:26.316Z,6.25
2019-03-25T20:55:58.980Z,4.67
2019-03-25T20:58:31.639Z,2.90
2019-03-25T21:01:04.372Z,4.70
2019-03-25T21:03:37.618Z,2.85
2019-03-25T21:06:10.248Z,7.53
2019-03-25T21:08:43.019Z,7.05
2019-03-25T21:11:15.665Z,3.65
2019-03-25T21:13:48.342Z,8.58
2019-03-25T21:16:21.192Z,4.10
2019-03-25T21:18:54.380Z,5.90
2019-03-25T21:21:27.078Z,6.37
2019-03-25T21:23:59.754Z,8.03
2019-03-25T21:26:32.451Z,7.05
2019-03-25T21:29:05.711Z,5.67
2019-03-25T21:31:39.342Z,7.08
2019-03-25T21:34:12.038Z,6.78
2019-03-25T21:36:44.825Z,8.18
2019-03-25T21:39:19.205Z,9.30
2019-03-25T21:41:51.911Z,18.20
2019-03-25T21:44:24.541Z,14.55
2019-03-25T21:46:57.119Z,9.60
2019-03-25T21:49:31.481Z,10.93
2019-03-25T21:52:04.148Z,6.83
2019-03-25T21:54:41.140Z,12.58
2019-03-25T21:57:13.459Z,5.62
2019-03-25T21:59:46.109Z,9.65
2019-03-25T22:02:18.732Z,7.85
2019-03-25T22:04:51.457Z,6.08
2019-03-25T22:07:24.254Z,7.92
2019-03-25T22:09:56.953Z,7.83
2019-03-25T22:12:29.991Z,6.08
2019-03-25T22:15:04.053Z,6.45
2019-03-25T22:17:36.902Z,4.75
2019-03-25T22:20:10.353Z,4.55
2019-03-25T22:22:43.514Z,6.95
2019-03-25T22:25:16.287Z,7.25
2019-03-25T22:27:49.010Z,4.35
2019-03-25T22:30:21.651Z,5.58
2019-03-25T22:32:54.493Z,6.65
2019-03-25T22:35:27.135Z,3.67
2019-03-25T22:37:59.936Z,7.25
2019-03-25T22:40:33.313Z,3.40
2019-03-25T22:43:06.107Z,6.12
2019-03-25T22:45:38.893Z,4.97
2019-03-25T22:48:11.547Z,8.38
2019-03-25T22:50:44.200Z,5.83
2019-03-25T22:53:16.897Z,8.90
2019-03-25T22:55:49.850Z,6.35
2019-03-25T22:58:22.482Z,4.30
2019-03-25T23:00:55.212Z,5.62
2019-03-25T23:03:38.612Z,7.05
2019-03-25T23:06:02.136Z,6.97
2019-03-25T23:08:35.308Z,5.33
2019-03-25T23:11:07.962Z,6.50
2019-03-25T23:13:40.543Z,6.33
2019-03-25T23:16:14.759Z,6.58
2019-03-25T23:18:47.537Z,5.22
2019-03-25T23:21:21.148Z,5.37
2019-03-25T23:23:53.767Z,7.47
2019-03-25T23:26:26.395Z,4.55
2019-03-25T23:28:59.008Z,7.83
2019-03-25T23:31:31.633Z,4.10
2019-03-25T23:34:04.443Z,6.40
2019-03-25T23:36:37.075Z,4.45
2019-03-25T23:39:09.976Z,6.25
2019-03-25T23:41:42.716Z,4.47
2019-03-25T23:44:15.343Z,6.67
2019-03-25T23:49:57.686Z,4.58
2019-03-25T23:52:31.306Z,5.08
2019-03-25T23:55:04.020Z,3.87
2019-03-25T23:57:38.450Z,10.40
